sensor_id;sensor_type;location;lat;lon;timestamp;P1;durP1;ratioP1;P2;durP2;ratioP2
29320;SDS011;16323;51.130;6.612;2022-08-11T00:01:36;1.17;;;0.80;;
29320;SDS011;16323;51.130;6.612;2022-08-11T00:04:09;0.90;;;0.80;;
29320;SDS011;16323;51.130;6.612;2022-08-11T00:06:37;1.08;;;0.80;;
29320;SDS011;16323;51.130;6.612;2022-08-11T00:09:06;0.90;;;0.80;;
29320;SDS011;16323;51.130;6.612;2022-08-11T00:11:36;0.75;;;0.75;;
29320;SDS011;16323;51.130;6.612;2022-08-11T00:14:12;1.17;;;1.00;;
29320;SDS011;16323;51.130;6.612;2022-08-11T00:16:40;1.50;;;1.00;;
29320;SDS011;16323;51.130;6.612;2022-08-11T00:19:10;1.17;;;0.95;;
29320;SDS011;16323;51.130;6.612;2022-08-11T00:21:45;1.00;;;0.90;;
29320;SDS011;16323;51.130;6.612;2022-08-11T00:24:12;0.95;;;0.80;;
29320;SDS011;16323;51.130;6.612;2022-08-11T00:26:39;1.10;;;0.77;;
29320;SDS011;16323;51.130;6.612;2022-08-11T00:29:13;1.52;;;0.90;;
29320;SDS011;16323;51.130;6.612;2022-08-11T00:31:42;1.00;;;0.90;;
29320;SDS011;16323;51.130;6.612;2022-08-11T00:34:11;2.85;;;0.90;;
29320;SDS011;16323;51.130;6.612;2022-08-11T00:36:41;0.88;;;0.80;;
29320;SDS011;16323;51.130;6.612;2022-08-11T00:39:15;1.27;;;1.00;;
29320;SDS011;16323;51.130;6.612;2022-08-11T00:41:46;2.60;;;0.90;;
29320;SDS011;16323;51.130;6.612;2022-08-11T00:44:28;0.80;;;0.80;;
29320;SDS011;16323;51.130;6.612;2022-08-11T00:47:09;0.80;;;0.80;;
29320;SDS011;16323;51.130;6.612;2022-08-11T00:49:51;1.30;;;0.95;;
29320;SDS011;16323;51.130;6.612;2022-08-11T00:52:34;1.35;;;1.00;;
29320;SDS011;16323;51.130;6.612;2022-08-11T01:01:45;1.77;;;0.98;;
29320;SDS011;16323;51.130;6.612;2022-08-11T01:04:44;1.65;;;1.00;;
29320;SDS011;16323;51.130;6.612;2022-08-11T01:07:34;1.05;;;0.90;;
29320;SDS011;16323;51.130;6.612;2022-08-11T01:10:43;1.65;;;1.00;;
29320;SDS011;16323;51.130;6.612;2022-08-11T01:16:49;1.98;;;0.98;;
29320;SDS011;16323;51.130;6.612;2022-08-11T01:22:50;0.85;;;0.82;;
29320;SDS011;16323;51.130;6.612;2022-08-11T01:44:15;1.45;;;1.02;;
29320;SDS011;16323;51.130;6.612;2022-08-11T01:47:23;1.10;;;0.90;;
29320;SDS011;16323;51.130;6.612;2022-08-11T01:50:18;1.02;;;0.85;;
29320;SDS011;16323;51.130;6.612;2022-08-11T01:53:00;1.42;;;0.90;;
29320;SDS011;16323;51.130;6.612;2022-08-11T01:55:37;1.15;;;0.80;;
29320;SDS011;16323;51.130;6.612;2022-08-11T01:58:11;0.90;;;0.75;;
29320;SDS011;16323;51.130;6.612;2022-08-11T02:00:47;1.35;;;0.98;;
29320;SDS011;16323;51.130;6.612;2022-08-11T02:03:23;0.95;;;0.88;;
29320;SDS011;16323;51.130;6.612;2022-08-11T02:06:02;0.90;;;0.85;;
29320;SDS011;16323;51.130;6.612;2022-08-11T02:09:02;1.08;;;0.98;;
29320;SDS011;16323;51.130;6.612;2022-08-11T02:11:34;1.65;;;1.00;;
29320;SDS011;16323;51.130;6.612;2022-08-11T02:14:06;1.42;;;1.05;;
29320;SDS011;16323;51.130;6.612;2022-08-11T02:16:50;1.30;;;0.95;;
29320;SDS011;16323;51.130;6.612;2022-08-11T02:19:23;1.63;;;1.10;;
29320;SDS011;16323;51.130;6.612;2022-08-11T02:22:18;1.17;;;0.93;;
29320;SDS011;16323;51.130;6.612;2022-08-11T02:25:19;1.45;;;1.17;;
29320;SDS011;16323;51.130;6.612;2022-08-11T02:27:52;1.25;;;1.02;;
29320;SDS011;16323;51.130;6.612;2022-08-11T02:30:34;1.45;;;0.82;;
29320;SDS011;16323;51.130;6.612;2022-08-11T02:33:07;0.75;;;0.75;;
29320;SDS011;16323;51.130;6.612;2022-08-11T02:35:54;1.02;;;0.90;;
29320;SDS011;16323;51.130;6.612;2022-08-11T02:38:29;1.08;;;0.93;;
29320;SDS011;16323;51.130;6.612;2022-08-11T02:41:04;1.00;;;0.90;;
29320;SDS011;16323;51.130;6.612;2022-08-11T02:43:55;0.80;;;0.80;;
29320;SDS011;16323;51.130;6.612;2022-08-11T02:46:35;1.67;;;0.95;;
29320;SDS011;16323;51.130;6.612;2022-08-11T02:49:13;1.65;;;1.10;;
29320;SDS011;16323;51.130;6.612;2022-08-11T02:52:13;1.02;;;0.93;;
29320;SDS011;16323;51.130;6.612;2022-08-11T02:54:49;2.13;;;1.10;;
29320;SDS011;16323;51.130;6.612;2022-08-11T02:57:27;0.98;;;0.88;;
29320;SDS011;16323;51.130;6.612;2022-08-11T03:00:03;1.15;;;1.00;;
29320;SDS011;16323;51.130;6.612;2022-08-11T03:05:21;1.08;;;0.90;;
29320;SDS011;16323;51.130;6.612;2022-08-11T03:08:02;1.23;;;1.13;;
29320;SDS011;16323;51.130;6.612;2022-08-11T03:10:40;1.42;;;1.00;;
29320;SDS011;16323;51.130;6.612;2022-08-11T03:13:33;0.93;;;0.90;;
29320;SDS011;16323;51.130;6.612;2022-08-11T03:16:23;1.38;;;1.00;;
29320;SDS011;16323;51.130;6.612;2022-08-11T03:19:14;1.35;;;1.10;;
29320;SDS011;16323;51.130;6.612;2022-08-11T03:21:51;1.30;;;1.10;;
29320;SDS011;16323;51.130;6.612;2022-08-11T03:24:26;1.20;;;0.93;;
29320;SDS011;16323;51.130;6.612;2022-08-11T03:27:01;1.17;;;1.08;;
29320;SDS011;16323;51.130;6.612;2022-08-11T03:29:36;1.25;;;1.05;;
29320;SDS011;16323;51.130;6.612;2022-08-11T03:32:10;2.25;;;1.20;;
29320;SDS011;16323;51.130;6.612;2022-08-11T03:34:48;1.13;;;1.02;;
29320;SDS011;16323;51.130;6.612;2022-08-11T03:37:24;1.50;;;1.05;;
29320;SDS011;16323;51.130;6.612;2022-08-11T03:40:18;2.15;;;1.33;;
29320;SDS011;16323;51.130;6.612;2022-08-11T03:43:31;1.08;;;0.98;;
29320;SDS011;16323;51.130;6.612;2022-08-11T03:46:15;1.40;;;1.20;;
29320;SDS011;16323;51.130;6.612;2022-08-11T03:48:53;1.02;;;0.93;;
29320;SDS011;16323;51.130;6.612;2022-08-11T03:51:31;1.08;;;0.90;;
29320;SDS011;16323;51.130;6.612;2022-08-11T03:54:13;2.65;;;1.30;;
29320;SDS011;16323;51.130;6.612;2022-08-11T03:59:58;1.63;;;1.17;;
29320;SDS011;16323;51.130;6.612;2022-08-11T04:02:56;1.10;;;1.00;;
29320;SDS011;16323;51.130;6.612;2022-08-11T04:09:06;1.23;;;1.10;;
29320;SDS011;16323;51.130;6.612;2022-08-11T04:12:06;1.10;;;0.98;;
29320;SDS011;16323;51.130;6.612;2022-08-11T04:21:20;1.58;;;1.00;;
29320;SDS011;16323;51.130;6.612;2022-08-11T04:30:00;1.60;;;1.08;;
29320;SDS011;16323;51.130;6.612;2022-08-11T04:32:41;1.23;;;1.13;;
29320;SDS011;16323;51.130;6.612;2022-08-11T04:35:31;1.88;;;1.40;;
29320;SDS011;16323;51.130;6.612;2022-08-11T04:44:50;1.83;;;1.33;;
29320;SDS011;16323;51.130;6.612;2022-08-11T04:47:47;1.23;;;1.10;;
29320;SDS011;16323;51.130;6.612;2022-08-11T04:50:53;1.83;;;1.17;;
29320;SDS011;16323;51.130;6.612;2022-08-11T04:53:53;1.30;;;1.20;;
29320;SDS011;16323;51.130;6.612;2022-08-11T04:56:42;1.60;;;1.10;;
29320;SDS011;16323;51.130;6.612;2022-08-11T04:59:47;1.10;;;1.00;;
29320;SDS011;16323;51.130;6.612;2022-08-11T05:02:55;1.40;;;1.10;;
29320;SDS011;16323;51.130;6.612;2022-08-11T05:09:15;1.92;;;1.42;;
29320;SDS011;16323;51.130;6.612;2022-08-11T05:12:17;1.67;;;1.33;;
29320;SDS011;16323;51.130;6.612;2022-08-11T05:14:54;2.35;;;1.63;;
29320;SDS011;16323;51.130;6.612;2022-08-11T05:17:41;1.75;;;1.40;;
29320;SDS011;16323;51.130;6.612;2022-08-11T05:20:39;2.03;;;1.42;;
29320;SDS011;16323;51.130;6.612;2022-08-11T05:23:29;2.38;;;1.60;;
29320;SDS011;16323;51.130;6.612;2022-08-11T05:26:18;2.17;;;1.70;;
29320;SDS011;16323;51.130;6.612;2022-08-11T05:29:04;1.85;;;1.50;;
29320;SDS011;16323;51.130;6.612;2022-08-11T05:32:09;2.30;;;1.30;;
29320;SDS011;16323;51.130;6.612;2022-08-11T05:34:58;1.63;;;1.40;;
29320;SDS011;16323;51.130;6.612;2022-08-11T05:37:30;2.20;;;1.50;;
29320;SDS011;16323;51.130;6.612;2022-08-11T05:40:05;3.17;;;1.70;;
29320;SDS011;16323;51.130;6.612;2022-08-11T05:42:55;2.65;;;1.70;;
29320;SDS011;16323;51.130;6.612;2022-08-11T05:45:41;2.47;;;1.83;;
29320;SDS011;16323;51.130;6.612;2022-08-11T05:48:31;2.22;;;1.50;;
29320;SDS011;16323;51.130;6.612;2022-08-11T05:51:17;1.65;;;1.30;;
29320;SDS011;16323;51.130;6.612;2022-08-11T05:54:03;1.80;;;1.60;;
29320;SDS011;16323;51.130;6.612;2022-08-11T05:56:51;1.33;;;1.23;;
29320;SDS011;16323;51.130;6.612;2022-08-11T05:59:22;2.22;;;1.50;;
29320;SDS011;16323;51.130;6.612;2022-08-11T06:01:52;1.88;;;1.50;;
29320;SDS011;16323;51.130;6.612;2022-08-11T06:04:25;3.20;;;1.65;;
29320;SDS011;16323;51.130;6.612;2022-08-11T06:06:55;1.45;;;1.35;;
29320;SDS011;16323;51.130;6.612;2022-08-11T06:09:23;2.35;;;1.40;;
29320;SDS011;16323;51.130;6.612;2022-08-11T06:11:52;1.33;;;1.23;;
29320;SDS011;16323;51.130;6.612;2022-08-11T06:14:24;1.90;;;1.48;;
29320;SDS011;16323;51.130;6.612;2022-08-11T06:16:53;1.73;;;1.40;;
29320;SDS011;16323;51.130;6.612;2022-08-11T06:19:23;1.88;;;1.50;;
29320;SDS011;16323;51.130;6.612;2022-08-11T06:21:58;1.63;;;1.30;;
29320;SDS011;16323;51.130;6.612;2022-08-11T06:24:27;1.45;;;1.23;;
29320;SDS011;16323;51.130;6.612;2022-08-11T06:26:56;2.78;;;1.40;;
29320;SDS011;16323;51.130;6.612;2022-08-11T06:29:25;1.75;;;1.33;;
29320;SDS011;16323;51.130;6.612;2022-08-11T06:31:54;2.13;;;1.55;;
29320;SDS011;16323;51.130;6.612;2022-08-11T06:34:27;3.22;;;1.75;;
29320;SDS011;16323;51.130;6.612;2022-08-11T06:37:07;2.33;;;1.60;;
29320;SDS011;16323;51.130;6.612;2022-08-11T06:39:44;3.22;;;1.30;;
29320;SDS011;16323;51.130;6.612;2022-08-11T06:42:26;1.92;;;1.42;;
29320;SDS011;16323;51.130;6.612;2022-08-11T06:45:03;1.52;;;1.20;;
29320;SDS011;16323;51.130;6.612;2022-08-11T06:47:36;1.40;;;1.27;;
29320;SDS011;16323;51.130;6.612;2022-08-11T06:50:10;2.05;;;1.20;;
29320;SDS011;16323;51.130;6.612;2022-08-11T06:52:59;1.60;;;1.30;;
29320;SDS011;16323;51.130;6.612;2022-08-11T06:55:27;2.45;;;1.30;;
29320;SDS011;16323;51.130;6.612;2022-08-11T06:58:11;2.13;;;1.30;;
29320;SDS011;16323;51.130;6.612;2022-08-11T07:00:59;2.00;;;1.50;;
29320;SDS011;16323;51.130;6.612;2022-08-11T07:03:30;2.38;;;1.35;;
29320;SDS011;16323;51.130;6.612;2022-08-11T07:06:03;1.58;;;1.17;;
29320;SDS011;16323;51.130;6.612;2022-08-11T07:15:22;1.48;;;1.20;;
29320;SDS011;16323;51.130;6.612;2022-08-11T07:18:11;2.58;;;1.33;;
29320;SDS011;16323;51.130;6.612;2022-08-11T07:21:11;1.58;;;1.40;;
29320;SDS011;16323;51.130;6.612;2022-08-11T07:23:59;1.77;;;1.40;;
29320;SDS011;16323;51.130;6.612;2022-08-11T07:26:48;1.67;;;1.17;;
29320;SDS011;16323;51.130;6.612;2022-08-11T07:29:36;2.60;;;1.50;;
29320;SDS011;16323;51.130;6.612;2022-08-11T07:32:08;1.20;;;1.08;;
29320;SDS011;16323;51.130;6.612;2022-08-11T07:34:43;1.55;;;1.45;;
29320;SDS011;16323;51.130;6.612;2022-08-11T07:37:14;1.70;;;1.20;;
29320;SDS011;16323;51.130;6.612;2022-08-11T07:39:44;1.98;;;1.30;;
29320;SDS011;16323;51.130;6.612;2022-08-11T07:42:14;2.25;;;1.40;;
29320;SDS011;16323;51.130;6.612;2022-08-11T07:44:43;1.40;;;1.30;;
29320;SDS011;16323;51.130;6.612;2022-08-11T07:47:29;1.40;;;1.30;;
29320;SDS011;16323;51.130;6.612;2022-08-11T07:50:17;1.40;;;1.20;;
29320;SDS011;16323;51.130;6.612;2022-08-11T07:53:01;1.08;;;1.00;;
29320;SDS011;16323;51.130;6.612;2022-08-11T07:55:29;1.50;;;1.40;;
29320;SDS011;16323;51.130;6.612;2022-08-11T07:57:58;1.48;;;1.30;;
29320;SDS011;16323;51.130;6.612;2022-08-11T08:00:43;2.30;;;1.60;;
29320;SDS011;16323;51.130;6.612;2022-08-11T08:03:30;1.70;;;1.20;;
29320;SDS011;16323;51.130;6.612;2022-08-11T08:06:17;1.85;;;1.30;;
29320;SDS011;16323;51.130;6.612;2022-08-11T08:09:02;1.55;;;1.23;;
29320;SDS011;16323;51.130;6.612;2022-08-11T08:11:47;1.85;;;1.27;;
29320;SDS011;16323;51.130;6.612;2022-08-11T08:14:32;1.48;;;1.10;;
29320;SDS011;16323;51.130;6.612;2022-08-11T08:17:17;2.88;;;1.23;;
29320;SDS011;16323;51.130;6.612;2022-08-11T08:20:02;1.85;;;1.40;;
29320;SDS011;16323;51.130;6.612;2022-08-11T08:22:33;1.35;;;1.25;;
29320;SDS011;16323;51.130;6.612;2022-08-11T08:25:00;1.50;;;1.25;;
29320;SDS011;16323;51.130;6.612;2022-08-11T08:27:27;1.42;;;1.20;;
29320;SDS011;16323;51.130;6.612;2022-08-11T08:29:55;1.52;;;1.27;;
29320;SDS011;16323;51.130;6.612;2022-08-11T08:32:40;1.77;;;1.33;;
29320;SDS011;16323;51.130;6.612;2022-08-11T08:35:08;1.27;;;1.15;;
29320;SDS011;16323;51.130;6.612;2022-08-11T08:37:37;1.48;;;1.20;;
29320;SDS011;16323;51.130;6.612;2022-08-11T08:40:05;1.60;;;1.40;;
29320;SDS011;16323;51.130;6.612;2022-08-11T08:42:36;1.20;;;1.10;;
29320;SDS011;16323;51.130;6.612;2022-08-11T08:45:06;1.65;;;1.38;;
29320;SDS011;16323;51.130;6.612;2022-08-11T08:47:36;1.30;;;1.20;;
29320;SDS011;16323;51.130;6.612;2022-08-11T08:50:06;1.70;;;1.27;;
29320;SDS011;16323;51.130;6.612;2022-08-11T08:52:36;1.20;;;1.10;;
29320;SDS011;16323;51.130;6.612;2022-08-11T08:55:08;1.05;;;0.95;;
29320;SDS011;16323;51.130;6.612;2022-08-11T08:57:42;1.30;;;1.15;;
29320;SDS011;16323;51.130;6.612;2022-08-11T09:00:10;1.20;;;1.08;;
29320;SDS011;16323;51.130;6.612;2022-08-11T09:02:40;1.50;;;1.10;;
29320;SDS011;16323;51.130;6.612;2022-08-11T09:05:08;0.90;;;0.90;;
29320;SDS011;16323;51.130;6.612;2022-08-11T09:07:38;2.15;;;1.17;;
29320;SDS011;16323;51.130;6.612;2022-08-11T09:10:06;1.20;;;1.10;;
29320;SDS011;16323;51.130;6.612;2022-08-11T09:12:34;1.27;;;1.02;;
29320;SDS011;16323;51.130;6.612;2022-08-11T09:15:06;1.45;;;0.98;;
29320;SDS011;16323;51.130;6.612;2022-08-11T09:17:35;1.40;;;1.10;;
29320;SDS011;16323;51.130;6.612;2022-08-11T09:20:05;1.38;;;1.10;;
29320;SDS011;16323;51.130;6.612;2022-08-11T09:22:34;2.08;;;1.52;;
29320;SDS011;16323;51.130;6.612;2022-08-11T09:25:21;1.27;;;1.17;;
29320;SDS011;16323;51.130;6.612;2022-08-11T09:28:10;1.45;;;1.00;;
29320;SDS011;16323;51.130;6.612;2022-08-11T09:30:39;1.48;;;1.10;;
29320;SDS011;16323;51.130;6.612;2022-08-11T09:33:08;1.50;;;1.10;;
29320;SDS011;16323;51.130;6.612;2022-08-11T09:35:37;1.10;;;1.00;;
29320;SDS011;16323;51.130;6.612;2022-08-11T09:38:08;1.40;;;1.17;;
29320;SDS011;16323;51.130;6.612;2022-08-11T09:40:56;1.20;;;1.10;;
29320;SDS011;16323;51.130;6.612;2022-08-11T09:43:25;1.50;;;1.05;;
29320;SDS011;16323;51.130;6.612;2022-08-11T09:46:10;0.93;;;0.93;;
29320;SDS011;16323;51.130;6.612;2022-08-11T09:48:39;1.60;;;1.40;;
29320;SDS011;16323;51.130;6.612;2022-08-11T09:51:09;1.17;;;1.00;;
29320;SDS011;16323;51.130;6.612;2022-08-11T09:53:37;1.00;;;0.90;;
29320;SDS011;16323;51.130;6.612;2022-08-11T09:56:08;1.33;;;1.02;;
29320;SDS011;16323;51.130;6.612;2022-08-11T09:59:01;2.05;;;0.95;;
29320;SDS011;16323;51.130;6.612;2022-08-11T10:01:30;1.08;;;0.98;;
29320;SDS011;16323;51.130;6.612;2022-08-11T10:04:00;1.02;;;0.93;;
29320;SDS011;16323;51.130;6.612;2022-08-11T10:06:31;1.17;;;1.00;;
29320;SDS011;16323;51.130;6.612;2022-08-11T10:09:20;1.58;;;1.25;;
29320;SDS011;16323;51.130;6.612;2022-08-11T10:11:50;1.00;;;0.90;;
29320;SDS011;16323;51.130;6.612;2022-08-11T10:14:19;1.10;;;1.00;;
29320;SDS011;16323;51.130;6.612;2022-08-11T10:17:05;1.20;;;1.10;;
29320;SDS011;16323;51.130;6.612;2022-08-11T10:19:33;1.52;;;1.02;;
29320;SDS011;16323;51.130;6.612;2022-08-11T10:22:02;1.80;;;1.40;;
29320;SDS011;16323;51.130;6.612;2022-08-11T10:24:47;1.10;;;1.00;;
29320;SDS011;16323;51.130;6.612;2022-08-11T10:27:33;1.75;;;1.15;;
29320;SDS011;16323;51.130;6.612;2022-08-11T10:30:01;1.00;;;0.90;;
29320;SDS011;16323;51.130;6.612;2022-08-11T10:32:45;1.20;;;0.90;;
29320;SDS011;16323;51.130;6.612;2022-08-11T10:35:33;1.10;;;1.00;;
29320;SDS011;16323;51.130;6.612;2022-08-11T10:38:01;1.10;;;1.00;;
29320;SDS011;16323;51.130;6.612;2022-08-11T10:40:28;1.10;;;1.00;;
29320;SDS011;16323;51.130;6.612;2022-08-11T10:42:58;1.25;;;0.80;;
29320;SDS011;16323;51.130;6.612;2022-08-11T10:45:29;1.90;;;1.20;;
29320;SDS011;16323;51.130;6.612;2022-08-11T10:48:15;1.17;;;0.95;;
29320;SDS011;16323;51.130;6.612;2022-08-11T10:50:45;0.98;;;0.88;;
29320;SDS011;16323;51.130;6.612;2022-08-11T10:53:30;2.60;;;0.93;;
29320;SDS011;16323;51.130;6.612;2022-08-11T10:56:15;1.05;;;0.95;;
29320;SDS011;16323;51.130;6.612;2022-08-11T10:59:01;1.92;;;1.10;;
29320;SDS011;16323;51.130;6.612;2022-08-11T11:01:31;1.48;;;0.95;;
29320;SDS011;16323;51.130;6.612;2022-08-11T11:04:00;1.17;;;0.90;;
29320;SDS011;16323;51.130;6.612;2022-08-11T11:06:32;1.13;;;1.02;;
29320;SDS011;16323;51.130;6.612;2022-08-11T11:09:10;1.58;;;1.08;;
29320;SDS011;16323;51.130;6.612;2022-08-11T11:11:41;1.33;;;1.08;;
29320;SDS011;16323;51.130;6.612;2022-08-11T11:14:30;1.63;;;0.80;;
29320;SDS011;16323;51.130;6.612;2022-08-11T11:17:19;1.65;;;1.10;;
29320;SDS011;16323;51.130;6.612;2022-08-11T11:20:09;2.20;;;1.02;;
29320;SDS011;16323;51.130;6.612;2022-08-11T11:22:41;1.40;;;1.10;;
29320;SDS011;16323;51.130;6.612;2022-08-11T11:25:16;1.05;;;0.88;;
29320;SDS011;16323;51.130;6.612;2022-08-11T11:27:59;1.33;;;1.17;;
29320;SDS011;16323;51.130;6.612;2022-08-11T11:30:53;1.15;;;0.98;;
29320;SDS011;16323;51.130;6.612;2022-08-11T11:33:35;1.05;;;0.95;;
29320;SDS011;16323;51.130;6.612;2022-08-11T11:36:15;1.10;;;0.88;;
29320;SDS011;16323;51.130;6.612;2022-08-11T11:38:49;1.10;;;1.00;;
29320;SDS011;16323;51.130;6.612;2022-08-11T11:41:20;1.13;;;0.93;;
29320;SDS011;16323;51.130;6.612;2022-08-11T11:43:52;1.00;;;1.00;;
29320;SDS011;16323;51.130;6.612;2022-08-11T11:46:21;1.65;;;0.98;;
29320;SDS011;16323;51.130;6.612;2022-08-11T11:48:50;1.08;;;0.80;;
29320;SDS011;16323;51.130;6.612;2022-08-11T11:51:19;1.10;;;1.00;;
29320;SDS011;16323;51.130;6.612;2022-08-11T11:53:46;1.10;;;0.95;;
29320;SDS011;16323;51.130;6.612;2022-08-11T11:56:14;1.23;;;1.00;;
29320;SDS011;16323;51.130;6.612;2022-08-11T11:58:41;1.25;;;1.13;;
29320;SDS011;16323;51.130;6.612;2022-08-11T12:01:29;1.10;;;1.00;;
29320;SDS011;16323;51.130;6.612;2022-08-11T12:03:58;1.85;;;1.00;;
29320;SDS011;16323;51.130;6.612;2022-08-11T12:06:26;1.52;;;1.10;;
29320;SDS011;16323;51.130;6.612;2022-08-11T12:08:54;0.90;;;0.85;;
29320;SDS011;16323;51.130;6.612;2022-08-11T12:11:23;1.77;;;1.05;;
29320;SDS011;16323;51.130;6.612;2022-08-11T12:14:09;1.13;;;1.02;;
29320;SDS011;16323;51.130;6.612;2022-08-11T12:16:39;1.17;;;1.08;;
29320;SDS011;16323;51.130;6.612;2022-08-11T12:19:09;1.20;;;1.10;;
29320;SDS011;16323;51.130;6.612;2022-08-11T12:21:39;1.15;;;1.05;;
29320;SDS011;16323;51.130;6.612;2022-08-11T12:24:28;1.73;;;1.30;;
29320;SDS011;16323;51.130;6.612;2022-08-11T12:27:13;1.65;;;1.10;;
29320;SDS011;16323;51.130;6.612;2022-08-11T12:29:47;1.77;;;1.10;;
29320;SDS011;16323;51.130;6.612;2022-08-11T12:32:17;1.10;;;1.00;;
29320;SDS011;16323;51.130;6.612;2022-08-11T12:34:46;1.38;;;1.10;;
29320;SDS011;16323;51.130;6.612;2022-08-11T12:37:14;1.00;;;0.95;;
29320;SDS011;16323;51.130;6.612;2022-08-11T12:39:47;1.30;;;1.13;;
29320;SDS011;16323;51.130;6.612;2022-08-11T12:42:34;0.80;;;0.80;;
29320;SDS011;16323;51.130;6.612;2022-08-11T12:45:21;1.20;;;1.10;;
29320;SDS011;16323;51.130;6.612;2022-08-11T12:48:06;1.60;;;1.00;;
29320;SDS011;16323;51.130;6.612;2022-08-11T12:51:09;1.10;;;1.00;;
29320;SDS011;16323;51.130;6.612;2022-08-11T12:53:56;1.20;;;1.10;;
29320;SDS011;16323;51.130;6.612;2022-08-11T12:56:26;1.30;;;1.20;;
29320;SDS011;16323;51.130;6.612;2022-08-11T12:59:15;0.98;;;0.88;;
29320;SDS011;16323;51.130;6.612;2022-08-11T13:02:00;0.80;;;0.80;;
29320;SDS011;16323;51.130;6.612;2022-08-11T13:04:47;2.15;;;0.93;;
29320;SDS011;16323;51.130;6.612;2022-08-11T13:07:20;1.20;;;1.10;;
29320;SDS011;16323;51.130;6.612;2022-08-11T13:09:47;0.90;;;0.90;;
29320;SDS011;16323;51.130;6.612;2022-08-11T13:12:15;1.42;;;1.25;;
29320;SDS011;16323;51.130;6.612;2022-08-11T13:15:01;1.20;;;1.10;;
29320;SDS011;16323;51.130;6.612;2022-08-11T13:17:29;0.85;;;0.85;;
29320;SDS011;16323;51.130;6.612;2022-08-11T13:19:59;1.20;;;1.10;;
29320;SDS011;16323;51.130;6.612;2022-08-11T13:22:28;1.30;;;1.20;;
29320;SDS011;16323;51.130;6.612;2022-08-11T13:24:55;1.27;;;1.17;;
29320;SDS011;16323;51.130;6.612;2022-08-11T13:27:23;1.50;;;1.10;;
29320;SDS011;16323;51.130;6.612;2022-08-11T13:29:51;1.60;;;1.20;;
29320;SDS011;16323;51.130;6.612;2022-08-11T13:32:39;1.10;;;1.00;;
29320;SDS011;16323;51.130;6.612;2022-08-11T13:35:09;1.45;;;1.20;;
29320;SDS011;16323;51.130;6.612;2022-08-11T13:37:39;1.10;;;1.00;;
29320;SDS011;16323;51.130;6.612;2022-08-11T13:40:07;1.38;;;1.05;;
29320;SDS011;16323;51.130;6.612;2022-08-11T13:42:35;1.17;;;1.08;;
29320;SDS011;16323;51.130;6.612;2022-08-11T13:45:04;1.52;;;1.30;;
29320;SDS011;16323;51.130;6.612;2022-08-11T13:47:33;1.13;;;1.02;;
29320;SDS011;16323;51.130;6.612;2022-08-11T13:50:02;1.30;;;1.10;;
29320;SDS011;16323;51.130;6.612;2022-08-11T13:52:31;1.60;;;1.10;;
29320;SDS011;16323;51.130;6.612;2022-08-11T13:54:59;1.10;;;0.90;;
29320;SDS011;16323;51.130;6.612;2022-08-11T13:57:29;1.27;;;1.00;;
29320;SDS011;16323;51.130;6.612;2022-08-11T13:59:58;1.48;;;0.90;;
29320;SDS011;16323;51.130;6.612;2022-08-11T14:02:35;2.13;;;0.98;;
29320;SDS011;16323;51.130;6.612;2022-08-11T14:05:06;1.20;;;1.10;;
29320;SDS011;16323;51.130;6.612;2022-08-11T14:07:38;1.20;;;1.10;;
29320;SDS011;16323;51.130;6.612;2022-08-11T14:10:11;1.85;;;1.02;;
29320;SDS011;16323;51.130;6.612;2022-08-11T14:12:42;1.33;;;1.08;;
29320;SDS011;16323;51.130;6.612;2022-08-11T14:15:34;1.08;;;1.00;;
29320;SDS011;16323;51.130;6.612;2022-08-11T14:18:02;1.20;;;1.00;;
29320;SDS011;16323;51.130;6.612;2022-08-11T14:20:33;1.20;;;1.00;;
29320;SDS011;16323;51.130;6.612;2022-08-11T14:23:16;1.45;;;1.17;;
29320;SDS011;16323;51.130;6.612;2022-08-11T14:25:44;1.27;;;1.13;;
29320;SDS011;16323;51.130;6.612;2022-08-11T14:28:25;1.33;;;1.08;;
29320;SDS011;16323;51.130;6.612;2022-08-11T14:30:52;1.02;;;0.95;;
29320;SDS011;16323;51.130;6.612;2022-08-11T14:33:22;1.77;;;1.10;;
29320;SDS011;16323;51.130;6.612;2022-08-11T14:35:48;0.93;;;0.80;;
29320;SDS011;16323;51.130;6.612;2022-08-11T14:38:17;1.20;;;0.95;;
29320;SDS011;16323;51.130;6.612;2022-08-11T14:40:45;1.92;;;1.25;;
29320;SDS011;16323;51.130;6.612;2022-08-11T14:43:31;1.10;;;0.95;;
29320;SDS011;16323;51.130;6.612;2022-08-11T14:46:15;1.38;;;0.90;;
29320;SDS011;16323;51.130;6.612;2022-08-11T14:49:01;0.88;;;0.88;;
29320;SDS011;16323;51.130;6.612;2022-08-11T14:51:28;1.08;;;0.98;;
29320;SDS011;16323;51.130;6.612;2022-08-11T14:53:57;1.33;;;1.15;;
29320;SDS011;16323;51.130;6.612;2022-08-11T14:56:39;1.95;;;1.05;;
29320;SDS011;16323;51.130;6.612;2022-08-11T14:59:08;1.10;;;0.98;;
29320;SDS011;16323;51.130;6.612;2022-08-11T15:01:36;0.88;;;0.80;;
29320;SDS011;16323;51.130;6.612;2022-08-11T15:04:21;2.40;;;1.20;;
29320;SDS011;16323;51.130;6.612;2022-08-11T15:06:49;0.88;;;0.88;;
29320;SDS011;16323;51.130;6.612;2022-08-11T15:09:18;3.15;;;1.00;;
29320;SDS011;16323;51.130;6.612;2022-08-11T15:11:46;2.15;;;0.90;;
29320;SDS011;16323;51.130;6.612;2022-08-11T15:14:32;1.17;;;0.88;;
29320;SDS011;16323;51.130;6.612;2022-08-11T15:17:16;1.20;;;1.10;;
29320;SDS011;16323;51.130;6.612;2022-08-11T15:19:44;1.27;;;1.08;;
29320;SDS011;16323;51.130;6.612;2022-08-11T15:22:27;1.15;;;1.05;;
29320;SDS011;16323;51.130;6.612;2022-08-11T15:25:13;2.38;;;1.15;;
29320;SDS011;16323;51.130;6.612;2022-08-11T15:27:40;1.27;;;1.00;;
29320;SDS011;16323;51.130;6.612;2022-08-11T15:30:28;1.15;;;0.93;;
29320;SDS011;16323;51.130;6.612;2022-08-11T15:33:13;1.15;;;0.95;;
29320;SDS011;16323;51.130;6.612;2022-08-11T15:36:01;1.10;;;1.00;;
29320;SDS011;16323;51.130;6.612;2022-08-11T15:39:05;1.13;;;1.00;;
29320;SDS011;16323;51.130;6.612;2022-08-11T15:41:44;1.23;;;1.13;;
29320;SDS011;16323;51.130;6.612;2022-08-11T15:44:33;1.45;;;1.00;;
29320;SDS011;16323;51.130;6.612;2022-08-11T15:47:24;1.30;;;1.13;;
29320;SDS011;16323;51.130;6.612;2022-08-11T15:49:54;1.40;;;1.10;;
29320;SDS011;16323;51.130;6.612;2022-08-11T15:52:26;1.38;;;1.10;;
29320;SDS011;16323;51.130;6.612;2022-08-11T15:54:57;2.47;;;1.30;;
29320;SDS011;16323;51.130;6.612;2022-08-11T15:57:28;1.63;;;1.38;;
29320;SDS011;16323;51.130;6.612;2022-08-11T16:00:27;1.25;;;1.15;;
29320;SDS011;16323;51.130;6.612;2022-08-11T16:03:24;2.65;;;1.40;;
29320;SDS011;16323;51.130;6.612;2022-08-11T16:06:10;1.63;;;1.20;;
29320;SDS011;16323;51.130;6.612;2022-08-11T16:08:38;1.50;;;1.13;;
29320;SDS011;16323;51.130;6.612;2022-08-11T16:11:07;1.15;;;1.05;;
29320;SDS011;16323;51.130;6.612;2022-08-11T16:13:36;1.55;;;1.20;;
29320;SDS011;16323;51.130;6.612;2022-08-11T16:16:23;1.15;;;1.00;;
29320;SDS011;16323;51.130;6.612;2022-08-11T16:18:53;1.17;;;1.00;;
29320;SDS011;16323;51.130;6.612;2022-08-11T16:21:23;1.83;;;1.15;;
29320;SDS011;16323;51.130;6.612;2022-08-11T16:23:53;1.42;;;1.10;;
29320;SDS011;16323;51.130;6.612;2022-08-11T16:26:23;1.55;;;1.20;;
29320;SDS011;16323;51.130;6.612;2022-08-11T16:28:53;1.42;;;1.10;;
29320;SDS011;16323;51.130;6.612;2022-08-11T16:31:21;1.95;;;1.20;;
29320;SDS011;16323;51.130;6.612;2022-08-11T16:33:50;2.30;;;1.20;;
29320;SDS011;16323;51.130;6.612;2022-08-11T16:36:18;2.25;;;1.30;;
29320;SDS011;16323;51.130;6.612;2022-08-11T16:39:04;1.60;;;1.20;;
29320;SDS011;16323;51.130;6.612;2022-08-11T16:41:34;1.20;;;1.10;;
29320;SDS011;16323;51.130;6.612;2022-08-11T16:44:21;1.77;;;1.20;;
29320;SDS011;16323;51.130;6.612;2022-08-11T16:47:09;1.40;;;1.00;;
29320;SDS011;16323;51.130;6.612;2022-08-11T16:49:38;2.40;;;1.10;;
29320;SDS011;16323;51.130;6.612;2022-08-11T16:52:10;1.00;;;0.90;;
29320;SDS011;16323;51.130;6.612;2022-08-11T16:54:38;1.90;;;1.35;;
29320;SDS011;16323;51.130;6.612;2022-08-11T16:57:07;1.17;;;1.00;;
29320;SDS011;16323;51.130;6.612;2022-08-11T16:59:56;2.45;;;1.25;;
29320;SDS011;16323;51.130;6.612;2022-08-11T17:02:28;1.23;;;1.13;;